createdAt,value
2017-10-03T00:00:20.856Z,0
2017-10-03T00:01:20.953Z,0
2017-10-03T00:02:20.536Z,0
2017-10-03T00:03:20.531Z,0
2017-10-03T00:04:20.846Z,0
2017-10-03T00:05:20.522Z,0
2017-10-03T00:06:20.201Z,0
2017-10-03T00:07:20.826Z,0
2017-10-03T00:08:20.917Z,0
2017-10-03T00:09:21.121Z,0
2017-10-03T00:10:21.115Z,0
2017-10-03T00:11:21.210Z,0
2017-10-03T00:12:20.588Z,0
2017-10-03T00:13:20.479Z,0
2017-10-03T00:14:20.471Z,0
2017-10-03T00:15:20.620Z,0
2017-10-03T00:16:20.561Z,0
2017-10-03T00:17:20.765Z,0
2017-10-03T00:18:20.768Z,0
2017-10-03T00:19:20.762Z,0
2017-10-03T00:20:20.745Z,0
2017-10-03T00:21:21.153Z,0
2017-10-03T00:22:20.844Z,0
2017-10-03T00:23:20.738Z,0
2017-10-03T00:24:20.417Z,0
2017-10-03T00:25:20.417Z,0
2017-10-03T00:26:20.199Z,0
2017-10-03T00:27:21.024Z,0
2017-10-03T00:28:20.703Z,0
2017-10-03T00:29:20.392Z,0
2017-10-03T00:30:20.389Z,0
2017-10-03T00:31:20.788Z,0
2017-10-03T00:32:20.366Z,0
2017-10-03T00:33:20.053Z,0
2017-10-03T00:34:20.457Z,0
2017-10-03T00:35:20.041Z,0
2017-10-03T00:36:20.655Z,0
2017-10-03T00:37:20.473Z,0
2017-10-03T00:38:20.332Z,0
2017-10-03T00:39:20.640Z,0
2017-10-03T00:40:20.324Z,0
2017-10-03T00:41:20.728Z,0
2017-10-03T00:42:20.937Z,0
2017-10-03T00:43:20.723Z,0
2017-10-03T00:44:20.304Z,0
2017-10-03T00:45:20.300Z,0
2017-10-03T00:46:19.982Z,0
2017-10-03T00:47:20.285Z,0
2017-10-03T00:48:20.380Z,0
2017-10-03T00:49:20.376Z,0
2017-10-03T00:50:20.891Z,0
2017-10-03T00:51:20.264Z,0
2017-10-03T00:52:20.358Z,0
2017-10-03T00:53:20.095Z,0
2017-10-03T00:54:21.066Z,0
2017-10-03T00:55:19.933Z,0
2017-10-03T00:56:20.646Z,0
2017-10-03T00:57:19.921Z,0
2017-10-03T00:58:20.633Z,0
2017-10-03T00:59:20.220Z,0
2017-10-03T01:00:20.007Z,0
2017-10-03T01:01:20.413Z,0
2017-10-03T01:02:20.201Z,0
2017-10-03T01:03:20.297Z,0
2017-10-03T01:04:20.193Z,0
2017-10-03T01:05:20.496Z,0
2017-10-03T01:06:20.528Z,0
2017-10-03T01:07:20.180Z,0
2017-10-03T01:08:20.279Z,0
2017-10-03T01:09:20.476Z,0
2017-10-03T01:10:20.266Z,0
2017-10-03T01:11:20.884Z,0
2017-10-03T01:12:20.557Z,0
2017-10-03T01:13:20.147Z,0
2017-10-03T01:14:20.141Z,0
2017-10-03T01:15:20.544Z,0
2017-10-03T01:16:19.920Z,0
2017-10-03T01:17:20.222Z,0
2017-10-03T01:18:20.744Z,0
2017-10-03T01:19:20.426Z,0
2017-10-03T01:20:20.515Z,0
2017-10-03T01:21:20.100Z,0
2017-10-03T01:22:20.096Z,0
2017-10-03T01:23:20.092Z,0
2017-10-03T01:24:19.776Z,0
2017-10-03T01:25:20.708Z,0
2017-10-03T01:26:20.383Z,0
2017-10-03T01:27:20.479Z,0
2017-10-03T01:28:20.574Z,0
2017-10-03T01:29:20.370Z,0
2017-10-03T01:30:20.357Z,0
2017-10-03T01:31:20.047Z,0
2017-10-03T01:32:20.761Z,0
2017-10-03T01:33:19.925Z,0
2017-10-03T01:34:20.032Z,0
2017-10-03T01:35:20.022Z,0
2017-10-03T01:36:20.019Z,0
2017-10-03T01:37:19.701Z,0
2017-10-03T01:38:20.008Z,0
2017-10-03T01:39:20.418Z,0
2017-10-03T01:40:20.307Z,0
2017-10-03T01:41:20.092Z,0
2017-10-03T01:42:20.294Z,0
2017-10-03T01:43:20.390Z,0
2017-10-03T01:44:20.484Z,0
2017-10-03T01:45:20.377Z,0
2017-10-03T01:46:20.064Z,0
2017-10-03T01:47:20.271Z,0
2017-10-03T01:48:19.953Z,0
2017-10-03T01:49:20.259Z,0
2017-10-03T01:50:20.249Z,0
2017-10-03T01:51:20.244Z,0
2017-10-03T01:52:20.244Z,0
2017-10-03T01:53:20.541Z,0
2017-10-03T01:54:20.227Z,0
2017-10-03T01:55:19.604Z,0
2017-10-03T01:56:20.216Z,0
2017-10-03T01:57:20.001Z,0
2017-10-03T01:58:20.204Z,0
2017-10-03T01:59:20.305Z,0
2017-10-03T02:00:20.199Z,0
2017-10-03T02:01:20.197Z,0
2017-10-03T02:02:19.566Z,0
2017-10-03T02:03:20.179Z,0
2017-10-03T02:04:19.962Z,0
2017-10-03T02:05:19.552Z,0
2017-10-03T02:06:19.850Z,0
2017-10-03T02:07:20.156Z,0
2017-10-03T02:08:19.634Z,0
2017-10-03T02:09:20.148Z,0
2017-10-03T02:10:19.835Z,0
2017-10-03T02:11:20.241Z,0
2017-10-03T02:12:19.821Z,0
2017-10-03T02:13:19.813Z,0
2017-10-03T02:14:20.531Z,0
2017-10-03T02:15:19.901Z,0
2017-10-03T02:16:20.521Z,0
2017-10-03T02:17:19.895Z,0
2017-10-03T02:18:20.096Z,0
2017-10-03T02:19:19.470Z,0
2017-10-03T02:20:20.190Z,0
2017-10-03T02:21:19.869Z,0
2017-10-03T02:22:20.487Z,0
2017-10-03T02:23:20.072Z,0
2017-10-03T02:24:20.473Z,0
2017-10-03T02:25:19.591Z,0
2017-10-03T02:26:20.363Z,0
2017-10-03T02:27:19.838Z,0
2017-10-03T02:28:20.143Z,0
2017-10-03T02:29:19.731Z,0
2017-10-03T02:30:19.423Z,0
2017-10-03T02:31:19.718Z,0
2017-10-03T02:32:20.020Z,0
2017-10-03T02:33:20.116Z,0
2017-10-03T02:34:19.699Z,0
2017-10-03T02:35:19.794Z,0
2017-10-03T02:36:19.789Z,0
2017-10-03T02:37:19.993Z,0
2017-10-03T02:38:19.687Z,0
2017-10-03T02:39:20.084Z,0
2017-10-03T02:40:19.768Z,0
2017-10-03T02:41:19.454Z,0
2017-10-03T02:42:19.853Z,0
2017-10-03T02:43:19.955Z,0
2017-10-03T02:44:19.959Z,0
2017-10-03T02:45:19.331Z,0
2017-10-03T02:46:19.325Z,0
2017-10-03T02:47:19.730Z,0
2017-10-03T02:48:19.933Z,0
2017-10-03T02:49:19.619Z,0
2017-10-03T02:50:19.611Z,0
2017-10-03T02:51:19.919Z,0
2017-10-03T02:52:20.015Z,0
2017-10-03T02:53:20.009Z,0
2017-10-03T02:54:20.314Z,0
2017-10-03T02:55:19.897Z,0
2017-10-03T02:56:19.595Z,0
2017-10-03T02:57:20.192Z,0
2017-10-03T02:58:19.976Z,0
2017-10-03T02:59:19.764Z,0
2017-10-03T03:00:19.560Z,0
2017-10-03T03:01:20.169Z,0
2017-10-03T03:02:19.548Z,0
2017-10-03T03:03:20.257Z,0
2017-10-03T03:04:19.847Z,0
2017-10-03T03:05:19.838Z,0
2017-10-03T03:06:19.934Z,0
2017-10-03T03:07:19.521Z,0
2017-10-03T03:08:19.612Z,0
2017-10-03T03:09:19.328Z,0
2017-10-03T03:10:19.505Z,0
2017-10-03T03:11:19.191Z,0
2017-10-03T03:12:19.798Z,0
2017-10-03T03:13:19.485Z,0
2017-10-03T03:14:19.478Z,0
2017-10-03T03:15:19.781Z,0
2017-10-03T03:16:19.265Z,0
2017-10-03T03:17:19.774Z,0
2017-10-03T03:18:20.103Z,0
2017-10-03T03:19:19.869Z,0
2017-10-03T03:20:19.652Z,0
2017-10-03T03:21:20.065Z,0
2017-10-03T03:22:19.228Z,0
2017-10-03T03:23:19.435Z,0
2017-10-03T03:24:19.427Z,0
2017-10-03T03:25:19.431Z,0
2017-10-03T03:26:19.109Z,0
2017-10-03T03:27:19.523Z,0
2017-10-03T03:28:19.406Z,0
2017-10-03T03:29:19.405Z,0
2017-10-03T03:30:19.812Z,0
2017-10-03T03:31:19.904Z,0
2017-10-03T03:32:19.488Z,0
2017-10-03T03:33:19.686Z,0
2017-10-03T03:34:19.380Z,0
2017-10-03T03:35:19.677Z,0
2017-10-03T03:36:19.771Z,0
2017-10-03T03:37:19.669Z,0
2017-10-03T03:38:19.352Z,0
2017-10-03T03:39:19.351Z,0
2017-10-03T03:40:19.668Z,0
2017-10-03T03:41:19.456Z,0
2017-10-03T03:42:19.642Z,0
2017-10-03T03:43:19.117Z,0
2017-10-03T03:44:19.676Z,0
2017-10-03T03:45:19.316Z,0
2017-10-03T03:46:19.726Z,0
2017-10-03T03:47:19.614Z,0
2017-10-03T03:48:19.607Z,0
2017-10-03T03:49:19.607Z,0
2017-10-03T03:50:19.605Z,0
2017-10-03T03:51:19.284Z,0
2017-10-03T03:52:19.691Z,0
2017-10-03T03:53:19.062Z,0
2017-10-03T03:54:19.890Z,0
2017-10-03T03:55:19.361Z,0
2017-10-03T03:56:19.976Z,0
2017-10-03T03:57:19.567Z,0
2017-10-03T03:58:19.243Z,0
2017-10-03T03:59:19.650Z,0
2017-10-03T04:00:19.237Z,0
2017-10-03T04:01:19.643Z,0
2017-10-03T04:02:19.014Z,0
2017-10-03T04:03:19.529Z,0
2017-10-03T04:04:19.619Z,0
2017-10-03T04:05:19.514Z,0
2017-10-03T04:06:18.892Z,0
2017-10-03T04:07:19.504Z,0
2017-10-03T04:08:19.293Z,0
2017-10-03T04:09:19.599Z,0
2017-10-03T04:10:19.279Z,0
2017-10-03T04:11:19.486Z,0
2017-10-03T04:12:19.168Z,0
2017-10-03T04:13:19.267Z,0
2017-10-03T04:14:18.851Z,0
2017-10-03T04:15:18.947Z,0
2017-10-03T04:16:18.840Z,0
2017-10-03T04:17:19.760Z,0
2017-10-03T04:18:19.444Z,0
2017-10-03T04:19:19.154Z,0
2017-10-03T04:20:19.438Z,0
2017-10-03T04:21:19.123Z,0
2017-10-03T04:22:19.832Z,0
2017-10-03T04:23:19.417Z,0
2017-10-03T04:24:19.104Z,0
2017-10-03T04:25:19.408Z,0
2017-10-03T04:26:19.092Z,0
2017-10-03T04:27:19.497Z,0
2017-10-03T04:28:19.086Z,0
2017-10-03T04:29:19.075Z,0
2017-10-03T04:30:19.381Z,0
2017-10-03T04:31:19.679Z,0
2017-10-03T04:32:19.368Z,0
2017-10-03T04:33:19.466Z,0
2017-10-03T04:34:19.766Z,0
2017-10-03T04:35:19.758Z,0
2017-10-03T04:36:19.035Z,0
2017-10-03T04:37:19.340Z,0
2017-10-03T04:38:19.340Z,0
2017-10-03T04:39:19.121Z,0
2017-10-03T04:40:19.426Z,0
2017-10-03T04:41:19.314Z,0
2017-10-03T04:42:19.001Z,0
2017-10-03T04:43:18.995Z,0
2017-10-03T04:44:19.302Z,0
2017-10-03T04:45:19.083Z,0
2017-10-03T04:46:19.492Z,0
2017-10-03T04:47:19.288Z,0
2017-10-03T04:48:19.282Z,0
2017-10-03T04:49:18.656Z,0
2017-10-03T04:50:19.576Z,0
2017-10-03T04:51:19.054Z,0
2017-10-03T04:52:18.636Z,0
2017-10-03T04:53:19.560Z,0
2017-10-03T04:54:19.554Z,0
2017-10-03T04:55:19.027Z,0
2017-10-03T04:56:19.023Z,0
2017-10-03T04:57:18.606Z,0
2017-10-03T04:58:18.914Z,0
2017-10-03T04:59:19.216Z,0
2017-10-03T05:00:18.692Z,0
2017-10-03T05:01:19.201Z,0
2017-10-03T05:02:19.314Z,0
2017-10-03T05:03:19.196Z,0
2017-10-03T05:04:18.882Z,0
2017-10-03T05:05:19.181Z,0
2017-10-03T05:06:19.282Z,0
2017-10-03T05:07:18.552Z,0
2017-10-03T05:08:19.167Z,0
2017-10-03T05:09:19.156Z,0
2017-10-03T05:10:18.634Z,0
2017-10-03T05:11:18.531Z,0
2017-10-03T05:12:18.939Z,0
2017-10-03T05:13:18.519Z,0
2017-10-03T05:14:18.825Z,0
2017-10-03T05:15:18.814Z,0
2017-10-03T05:16:19.117Z,0
2017-10-03T05:17:18.491Z,4
2017-10-03T05:18:18.802Z,4
2017-10-03T05:19:18.939Z,4
2017-10-03T05:20:19.096Z,4
2017-10-03T05:21:18.573Z,4
2017-10-03T05:22:18.564Z,4
2017-10-03T05:23:18.769Z,4
2017-10-03T05:24:19.074Z,4
2017-10-03T05:25:19.367Z,0
2017-10-03T05:26:18.855Z,4
2017-10-03T05:27:18.747Z,4
2017-10-03T05:28:18.431Z,8
2017-10-03T05:29:18.735Z,8
2017-10-03T05:30:19.147Z,8
2017-10-03T05:31:19.348Z,4
2017-10-03T05:32:18.410Z,4
2017-10-03T05:33:18.714Z,8
2017-10-03T05:34:18.395Z,8
2017-10-03T05:35:18.699Z,8
2017-10-03T05:36:18.795Z,8
2017-10-03T05:37:18.691Z,4
2017-10-03T05:38:19.304Z,8
2017-10-03T05:39:18.999Z,8
2017-10-03T05:40:18.676Z,12
2017-10-03T05:41:18.976Z,16
2017-10-03T05:42:18.352Z,16
2017-10-03T05:43:18.852Z,16
2017-10-03T05:44:18.646Z,12
2017-10-03T05:45:18.958Z,16
2017-10-03T05:46:19.457Z,16
2017-10-03T05:47:18.633Z,16
2017-10-03T05:48:19.135Z,16
2017-10-03T05:49:18.928Z,20
2017-10-03T05:50:19.234Z,20
2017-10-03T05:51:18.295Z,24
2017-10-03T05:52:18.601Z,20
2017-10-03T05:53:18.286Z,28
2017-10-03T05:54:19.041Z,28
2017-10-03T05:55:18.276Z,32
2017-10-03T05:56:18.576Z,36
2017-10-03T05:57:18.883Z,36
2017-10-03T05:58:18.879Z,40
2017-10-03T05:59:18.762Z,40
2017-10-03T06:00:18.554Z,40
2017-10-03T06:01:18.858Z,44
2017-10-03T06:02:19.165Z,48
2017-10-03T06:03:18.858Z,44
2017-10-03T06:04:18.940Z,44
2017-10-03T06:05:19.244Z,44
2017-10-03T06:06:18.827Z,48
2017-10-03T06:07:18.920Z,36
2017-10-03T06:08:18.816Z,36
2017-10-03T06:09:18.910Z,40
2017-10-03T06:10:18.802Z,40
2017-10-03T06:11:18.798Z,48
2017-10-03T06:12:18.484Z,44
2017-10-03T06:13:18.581Z,48
2017-10-03T06:14:19.293Z,48
2017-10-03T06:15:18.156Z,44
2017-10-03T06:16:18.561Z,44
2017-10-03T06:17:18.769Z,32
2017-10-03T06:18:18.239Z,28
2017-10-03T06:19:19.205Z,20
2017-10-03T06:20:18.436Z,16
2017-10-03T06:21:19.050Z,12
2017-10-03T06:22:18.763Z,4
2017-10-03T06:23:18.834Z,8
2017-10-03T06:24:18.413Z,16
2017-10-03T06:25:18.406Z,20
2017-10-03T06:26:18.709Z,24
2017-10-03T06:27:18.810Z,28
2017-10-03T06:28:18.181Z,24
2017-10-03T06:29:18.388Z,24
2017-10-03T06:30:18.688Z,32
2017-10-03T06:31:18.165Z,36
2017-10-03T06:32:18.370Z,28
2017-10-03T06:33:18.983Z,36
2017-10-03T06:34:18.459Z,40
2017-10-03T06:35:18.970Z,56
2017-10-03T06:36:18.655Z,76
2017-10-03T06:37:18.448Z,100
2017-10-03T06:38:18.334Z,108
2017-10-03T06:39:18.740Z,88
2017-10-03T06:40:18.630Z,84
2017-10-03T06:41:18.729Z,68
2017-10-03T06:42:18.621Z,76
2017-10-03T06:43:18.612Z,88
2017-10-03T06:44:18.090Z,104
2017-10-03T06:45:18.291Z,120
2017-10-03T06:46:18.291Z,160
2017-10-03T06:47:18.282Z,188
2017-10-03T06:48:18.992Z,188
2017-10-03T06:49:18.381Z,192
2017-10-03T06:50:18.881Z,172
2017-10-03T06:51:18.407Z,132
2017-10-03T06:52:17.940Z,104
2017-10-03T06:53:18.037Z,100
2017-10-03T06:54:18.647Z,120
2017-10-03T06:55:18.232Z,136
2017-10-03T06:56:18.228Z,156
2017-10-03T06:57:18.533Z,156
2017-10-03T06:58:18.524Z,132
2017-10-03T06:59:18.003Z,108
2017-10-03T07:00:18.093Z,92
2017-10-03T07:01:18.197Z,80
2017-10-03T07:02:17.882Z,80
2017-10-03T07:03:18.186Z,96
2017-10-03T07:04:18.182Z,120
2017-10-03T07:05:18.892Z,140
2017-10-03T07:06:18.273Z,168
2017-10-03T07:07:18.264Z,176
2017-10-03T07:08:17.848Z,160
2017-10-03T07:09:18.470Z,128
2017-10-03T07:10:18.158Z,112
2017-10-03T07:11:18.239Z,96
2017-10-03T07:12:18.753Z,88
2017-10-03T07:13:18.846Z,80
2017-10-03T07:14:18.136Z,72
2017-10-03T07:15:18.117Z,60
2017-10-03T07:16:18.208Z,56
2017-10-03T07:17:18.107Z,60
2017-10-03T07:18:18.509Z,68
2017-10-03T07:19:18.197Z,84
2017-10-03T07:20:18.397Z,88
2017-10-03T07:21:18.390Z,88
2017-10-03T07:22:18.486Z,84
2017-10-03T07:23:18.072Z,72
2017-10-03T07:24:18.373Z,64
2017-10-03T07:25:17.853Z,56
2017-10-03T07:26:18.369Z,52
2017-10-03T07:27:18.662Z,48
2017-10-03T07:28:18.044Z,44
2017-10-03T07:29:18.351Z,48
2017-10-03T07:30:18.341Z,44
2017-10-03T07:31:18.341Z,44
2017-10-03T07:32:18.019Z,36
2017-10-03T07:33:18.114Z,36
2017-10-03T07:34:18.423Z,36
2017-10-03T07:35:18.316Z,32
2017-10-03T07:36:17.998Z,32
2017-10-03T07:37:17.991Z,32
2017-10-03T07:38:18.495Z,32
2017-10-03T07:39:18.445Z,32
2017-10-03T07:40:17.667Z,32
2017-10-03T07:41:18.689Z,36
2017-10-03T07:42:17.656Z,36
2017-10-03T07:43:18.367Z,40
2017-10-03T07:44:18.675Z,40
2017-10-03T07:45:18.256Z,40
2017-10-03T07:46:18.046Z,40
2017-10-03T07:47:18.248Z,44
2017-10-03T07:48:18.240Z,44
2017-10-03T07:49:18.230Z,44
2017-10-03T07:50:18.228Z,40
2017-10-03T07:51:18.224Z,40
2017-10-03T07:52:17.906Z,36
2017-10-03T07:53:17.692Z,44
2017-10-03T07:54:18.204Z,60
2017-10-03T07:55:18.303Z,64
2017-10-03T07:56:18.198Z,60
2017-10-03T07:57:18.191Z,56
2017-10-03T07:58:18.180Z,52
2017-10-03T07:59:18.276Z,52
2017-10-03T08:00:18.287Z,56
2017-10-03T08:01:17.858Z,64
2017-10-03T08:02:17.857Z,76
2017-10-03T08:03:18.161Z,84
2017-10-03T08:04:17.949Z,100
2017-10-03T08:05:17.836Z,108
2017-10-03T08:06:18.241Z,88
2017-10-03T08:07:17.826Z,72
2017-10-03T08:08:18.236Z,72
2017-10-03T08:09:17.918Z,76
2017-10-03T08:10:18.127Z,72
2017-10-03T08:11:18.426Z,64
2017-10-03T08:12:17.494Z,56
2017-10-03T08:13:18.100Z,56
2017-10-03T08:14:18.095Z,60
2017-10-03T08:15:17.780Z,68
2017-10-03T08:16:18.389Z,76
2017-10-03T08:17:17.871Z,80
2017-10-03T08:18:18.382Z,68
2017-10-03T08:19:17.757Z,60
2017-10-03T08:20:17.544Z,72
2017-10-03T08:21:18.060Z,100
2017-10-03T08:22:17.433Z,140
2017-10-03T08:23:17.837Z,152
2017-10-03T08:24:17.420Z,156
2017-10-03T08:25:17.728Z,148
2017-10-03T08:26:18.341Z,144
2017-10-03T08:27:17.505Z,148
2017-10-03T08:28:17.912Z,152
2017-10-03T08:29:17.803Z,144
2017-10-03T08:30:17.388Z,152
2017-10-03T08:31:17.381Z,168
2017-10-03T08:32:17.378Z,200
2017-10-03T08:33:17.885Z,244
2017-10-03T08:34:17.675Z,316
2017-10-03T08:35:18.288Z,396
2017-10-03T08:36:17.664Z,432
2017-10-03T08:37:17.763Z,344
2017-10-03T08:38:18.373Z,316
2017-10-03T08:39:18.056Z,316
2017-10-03T08:40:17.958Z,292
2017-10-03T08:41:17.638Z,300
2017-10-03T08:42:17.945Z,308
2017-10-03T08:43:17.630Z,308
2017-10-03T08:44:17.724Z,332
2017-10-03T08:45:18.178Z,348
2017-10-03T08:46:17.612Z,364
2017-10-03T08:47:17.605Z,368
2017-10-03T08:48:17.909Z,380
2017-10-03T08:49:18.210Z,444
2017-10-03T08:50:18.408Z,472
2017-10-03T08:51:17.896Z,472
2017-10-03T08:52:17.578Z,460
2017-10-03T08:53:17.883Z,404
2017-10-03T08:54:17.888Z,400
2017-10-03T08:55:17.811Z,440
2017-10-03T08:56:17.347Z,520
2017-10-03T08:57:17.241Z,612
2017-10-03T08:58:17.545Z,568
2017-10-03T08:59:17.849Z,672
2017-10-03T09:00:18.251Z,700
2017-10-03T09:01:17.838Z,756
2017-10-03T09:02:18.242Z,672
2017-10-03T09:03:17.205Z,528
2017-10-03T09:04:17.526Z,536
2017-10-03T09:05:17.619Z,568
2017-10-03T09:06:17.504Z,496
2017-10-03T09:07:17.595Z,448
2017-10-03T09:08:17.493Z,448
2017-10-03T09:09:18.101Z,412
2017-10-03T09:10:18.299Z,392
2017-10-03T09:11:17.265Z,444
2017-10-03T09:12:17.160Z,500
2017-10-03T09:13:17.874Z,496
2017-10-03T09:14:17.459Z,608
2017-10-03T09:15:17.453Z,784
2017-10-03T09:16:17.956Z,768
2017-10-03T09:17:17.230Z,788
2017-10-03T09:18:17.436Z,888
2017-10-03T09:19:17.531Z,944
2017-10-03T09:20:17.525Z,856
2017-10-03T09:21:17.112Z,896
2017-10-03T09:22:17.417Z,920
2017-10-03T09:23:17.813Z,804
2017-10-03T09:24:17.811Z,704
2017-10-03T09:25:17.551Z,700
2017-10-03T09:26:17.395Z,484
2017-10-03T09:27:17.084Z,432
2017-10-03T09:28:18.004Z,376
2017-10-03T09:29:17.891Z,296
2017-10-03T09:30:17.781Z,248
2017-10-03T09:31:17.364Z,248
2017-10-03T09:32:17.358Z,316
2017-10-03T09:33:17.670Z,428
2017-10-03T09:34:17.041Z,468
2017-10-03T09:35:18.066Z,412
2017-10-03T09:36:17.339Z,396
2017-10-03T09:37:17.125Z,456
2017-10-03T09:38:17.018Z,648
2017-10-03T09:39:17.015Z,596
2017-10-03T09:40:17.324Z,504
2017-10-03T09:41:17.413Z,504
2017-10-03T09:42:17.407Z,652
2017-10-03T09:43:16.994Z,824
2017-10-03T09:44:17.295Z,672
2017-10-03T09:45:17.391Z,472
2017-10-03T09:46:17.390Z,468
2017-10-03T09:47:17.378Z,460
2017-10-03T09:48:18.095Z,484
2017-10-03T09:49:17.270Z,512
2017-10-03T09:50:17.572Z,568
2017-10-03T09:51:17.263Z,680
2017-10-03T09:52:17.967Z,820
2017-10-03T09:53:17.557Z,936
2017-10-03T09:54:17.243Z,952
2017-10-03T09:55:17.862Z,816
2017-10-03T09:56:17.023Z,712
2017-10-03T09:57:17.953Z,720
2017-10-03T09:58:17.632Z,772
2017-10-03T09:59:17.217Z,848
2017-10-03T10:00:17.622Z,712
2017-10-03T10:01:17.203Z,848
2017-10-03T10:02:17.506Z,952
2017-10-03T10:03:17.943Z,800
2017-10-03T10:04:17.497Z,604
2017-10-03T10:05:17.594Z,520
2017-10-03T10:06:17.488Z,500
2017-10-03T10:07:17.509Z,460
2017-10-03T10:08:17.267Z,644
2017-10-03T10:09:17.263Z,684
2017-10-03T10:10:17.663Z,612
2017-10-03T10:11:17.152Z,680
2017-10-03T10:12:17.760Z,572
2017-10-03T10:13:17.450Z,664
2017-10-03T10:14:17.848Z,508
2017-10-03T10:15:17.231Z,640
2017-10-03T10:16:17.223Z,1056
2017-10-03T10:17:17.733Z,1120
2017-10-03T10:18:17.113Z,1028
2017-10-03T10:19:17.308Z,900
2017-10-03T10:20:16.797Z,916
2017-10-03T10:21:17.098Z,1120
2017-10-03T10:22:17.093Z,1080
2017-10-03T10:23:17.087Z,900
2017-10-03T10:24:17.596Z,836
2017-10-03T10:25:17.490Z,752
2017-10-03T10:26:17.798Z,900
2017-10-03T10:27:17.374Z,836
2017-10-03T10:28:17.370Z,876
2017-10-03T10:29:17.156Z,832
2017-10-03T10:30:16.740Z,888
2017-10-03T10:31:17.145Z,900
2017-10-03T10:32:17.348Z,1032
2017-10-03T10:33:16.723Z,1108
2017-10-03T10:34:17.455Z,1172
2017-10-03T10:35:17.053Z,1284
2017-10-03T10:36:17.021Z,1204
2017-10-03T10:37:17.423Z,1016
2017-10-03T10:38:17.006Z,1100
2017-10-03T10:39:17.312Z,1228
2017-10-03T10:40:17.409Z,1120
2017-10-03T10:41:17.324Z,1028
2017-10-03T10:42:17.294Z,1280
2017-10-03T10:43:17.715Z,1468
2017-10-03T10:44:16.986Z,1472
2017-10-03T10:45:17.072Z,1480
2017-10-03T10:46:17.477Z,1392
2017-10-03T10:47:17.578Z,1440
2017-10-03T10:48:17.365Z,1424
2017-10-03T10:49:17.265Z,1164
2017-10-03T10:50:17.564Z,844
2017-10-03T10:51:17.654Z,924
2017-10-03T10:52:16.931Z,1228
2017-10-03T10:53:17.246Z,1172
2017-10-03T10:54:16.955Z,1368
2017-10-03T10:55:17.227Z,1408
2017-10-03T10:56:17.419Z,1476
2017-10-03T10:57:17.530Z,1320
2017-10-03T10:58:17.003Z,1360
2017-10-03T10:59:16.898Z,1200
2017-10-03T11:00:16.893Z,1088
2017-10-03T11:01:16.582Z,1004
2017-10-03T11:02:17.290Z,952
2017-10-03T11:03:16.668Z,860
2017-10-03T11:04:17.492Z,832
2017-10-03T11:05:17.485Z,876
2017-10-03T11:06:16.550Z,900
2017-10-03T11:07:16.954Z,744
2017-10-03T11:08:17.052Z,672
2017-10-03T11:09:17.259Z,636
2017-10-03T11:10:16.531Z,656
2017-10-03T11:11:16.834Z,628
2017-10-03T11:12:16.835Z,692
2017-10-03T11:13:17.027Z,736
2017-10-03T11:14:17.447Z,748
2017-10-03T11:15:16.506Z,816
2017-10-03T11:16:16.912Z,980
2017-10-03T11:17:16.801Z,1140
2017-10-03T11:18:16.802Z,1204
2017-10-03T11:19:16.894Z,1604
2017-10-03T11:20:16.889Z,1368
2017-10-03T11:21:17.098Z,1272
2017-10-03T11:22:16.784Z,1404
2017-10-03T11:23:16.772Z,1384
2017-10-03T11:24:16.660Z,1424
2017-10-03T11:25:16.553Z,1492
2017-10-03T11:26:16.865Z,1360
2017-10-03T11:27:16.753Z,1420
2017-10-03T11:28:16.749Z,1464
2017-10-03T11:29:17.461Z,1372
2017-10-03T11:30:17.256Z,1304
2017-10-03T11:31:17.039Z,1328
2017-10-03T11:32:16.520Z,1348
2017-10-03T11:33:16.413Z,1456
2017-10-03T11:34:17.028Z,1452
2017-10-03T11:35:17.529Z,1424
2017-10-03T11:36:17.325Z,1464
2017-10-03T11:37:17.426Z,1648
2017-10-03T11:38:16.698Z,1620
2017-10-03T11:39:16.788Z,1392
2017-10-03T11:40:16.683Z,1320
2017-10-03T11:41:16.684Z,1508
2017-10-03T11:42:16.988Z,1240
2017-10-03T11:43:16.723Z,1388
2017-10-03T11:44:17.122Z,1336
2017-10-03T11:45:17.075Z,1308
2017-10-03T11:46:16.972Z,1544
2017-10-03T11:47:17.026Z,1492
2017-10-03T11:48:16.959Z,1492
2017-10-03T11:49:16.744Z,1780
2017-10-03T11:50:17.360Z,1472
2017-10-03T11:51:17.258Z,1660
2017-10-03T11:52:16.319Z,1628
2017-10-03T11:53:16.621Z,1644
2017-10-03T11:54:16.617Z,1796
2017-10-03T11:55:16.923Z,1892
2017-10-03T11:56:16.604Z,1912
2017-10-03T11:57:16.701Z,1836
2017-10-03T11:58:17.009Z,1740
2017-10-03T11:59:16.590Z,1608
2017-10-03T12:00:16.278Z,1348
2017-10-03T12:01:16.682Z,1564
2017-10-03T12:02:16.578Z,1528
2017-10-03T12:03:17.085Z,1424
2017-10-03T12:04:16.882Z,1464
2017-10-03T12:05:16.970Z,1564
2017-10-03T12:06:17.276Z,1708
2017-10-03T12:07:16.552Z,1796
2017-10-03T12:08:16.958Z,1732
2017-10-03T12:09:16.231Z,1744
2017-10-03T12:10:16.227Z,1652
2017-10-03T12:11:16.942Z,1620
2017-10-03T12:12:16.833Z,1324
2017-10-03T12:13:16.312Z,1708
2017-10-03T12:14:16.615Z,1496
2017-10-03T12:15:16.822Z,1780
2017-10-03T12:16:17.225Z,1580
2017-10-03T12:17:16.810Z,1484
2017-10-03T12:18:16.810Z,1396
2017-10-03T12:19:16.490Z,1376
2017-10-03T12:20:16.489Z,1600
2017-10-03T12:21:16.785Z,1456
2017-10-03T12:22:16.170Z,1536
2017-10-03T12:23:16.474Z,1528
2017-10-03T12:24:16.467Z,1512
2017-10-03T12:25:16.767Z,1636
2017-10-03T12:26:16.146Z,1576
2017-10-03T12:27:16.649Z,1656
2017-10-03T12:28:17.092Z,1660
2017-10-03T12:29:16.442Z,1532
2017-10-03T12:30:16.435Z,1696
2017-10-03T12:31:17.051Z,1652
2017-10-03T12:32:17.146Z,1632
2017-10-03T12:33:16.422Z,1740
2017-10-03T12:34:16.827Z,1768
2017-10-03T12:35:16.722Z,1700
2017-10-03T12:36:16.099Z,1520
2017-10-03T12:37:16.713Z,1812
2017-10-03T12:38:16.703Z,1812
2017-10-03T12:39:17.007Z,1652
2017-10-03T12:40:16.697Z,1436
2017-10-03T12:41:16.382Z,1348
2017-10-03T12:42:16.380Z,928
2017-10-03T12:43:16.475Z,804
2017-10-03T12:44:16.776Z,780
2017-10-03T12:45:16.153Z,784
2017-10-03T12:46:16.669Z,772
2017-10-03T12:47:16.658Z,772
2017-10-03T12:48:17.064Z,776
2017-10-03T12:49:16.649Z,764
2017-10-03T12:50:16.744Z,768
2017-10-03T12:51:16.340Z,764
2017-10-03T12:52:16.632Z,760
2017-10-03T12:53:16.322Z,764
2017-10-03T12:54:16.316Z,780
2017-10-03T12:55:16.617Z,780
2017-10-03T12:56:16.405Z,792
2017-10-03T12:57:16.407Z,784
2017-10-03T12:58:15.988Z,792
2017-10-03T12:59:16.293Z,800
2017-10-03T13:00:16.285Z,804
2017-10-03T13:01:16.897Z,844
2017-10-03T13:02:16.279Z,648
2017-10-03T13:03:16.683Z,852
2017-10-03T13:04:15.964Z,852
2017-10-03T13:05:16.269Z,828
2017-10-03T13:06:16.259Z,824
2017-10-03T13:07:16.572Z,832
2017-10-03T13:08:16.656Z,844
2017-10-03T13:09:15.934Z,800
2017-10-03T13:10:16.547Z,808
2017-10-03T13:11:16.862Z,796
2017-10-03T13:12:16.844Z,792
2017-10-03T13:13:16.630Z,808
2017-10-03T13:14:16.626Z,804
2017-10-03T13:15:16.311Z,804
2017-10-03T13:16:16.517Z,816
2017-10-03T13:17:16.303Z,840
2017-10-03T13:18:16.923Z,828
2017-10-03T13:19:16.602Z,828
2017-10-03T13:20:16.188Z,848
2017-10-03T13:21:16.182Z,852
2017-10-03T13:22:16.490Z,872
2017-10-03T13:23:16.173Z,900
2017-10-03T13:24:16.885Z,868
2017-10-03T13:25:16.672Z,852
2017-10-03T13:26:16.464Z,864
2017-10-03T13:27:16.461Z,872
2017-10-03T13:28:16.775Z,880
2017-10-03T13:29:16.763Z,864
2017-10-03T13:30:16.555Z,892
2017-10-03T13:31:16.753Z,920
2017-10-03T13:32:16.535Z,968
2017-10-03T13:33:16.430Z,1232
2017-10-03T13:34:16.120Z,1392
2017-10-03T13:35:16.314Z,1492
2017-10-03T13:36:16.110Z,1512
2017-10-03T13:37:16.826Z,1684
2017-10-03T13:38:16.407Z,1704
2017-10-03T13:39:16.401Z,1784
2017-10-03T13:40:16.187Z,1732
2017-10-03T13:41:16.107Z,1584
2017-10-03T13:42:16.193Z,1700
2017-10-03T13:43:16.694Z,1956
2017-10-03T13:44:15.758Z,1964
2017-10-03T13:45:16.075Z,1476
2017-10-03T13:46:16.469Z,1552
2017-10-03T13:47:15.746Z,1400
2017-10-03T13:48:16.045Z,1364
2017-10-03T13:49:16.661Z,1292
2017-10-03T13:50:16.347Z,1336
2017-10-03T13:51:15.726Z,1280
2017-10-03T13:52:15.819Z,1372
2017-10-03T13:53:16.025Z,1460
2017-10-03T13:54:15.712Z,1396
2017-10-03T13:55:16.424Z,1192
2017-10-03T13:56:15.698Z,1368
2017-10-03T13:57:16.723Z,1344
2017-10-03T13:58:16.307Z,1372
2017-10-03T13:59:15.992Z,1076
2017-10-03T14:00:15.990Z,1024
2017-10-03T14:01:16.186Z,1048
2017-10-03T14:02:16.178Z,944
2017-10-03T14:03:16.289Z,952
2017-10-03T14:04:16.589Z,1144
2017-10-03T14:05:16.275Z,988
2017-10-03T14:06:16.269Z,952
2017-10-03T14:07:16.289Z,968
2017-10-03T14:08:16.362Z,1036
2017-10-03T14:09:16.148Z,1152